Time;durP1;ratioP1;P1;durP2;ratioP2;P2;SDS_P1;SDS_P2;PMS_P1;PMS_P2;Temp;Humidity;BMP_temperature;BMP_pressure;BME280_temperature;BME280_humidity;BME280_pressure;Samples;Min_cycle;Max_cycle;Signal;HPM_P1;HPM_P2
2022/07/11 00:01:49;;;;;;;0.93;0.70;;;17.60;99.90;;;;;;5030190;28;20213;-53
2022/07/11 00:04:17;;;;;;;0.87;0.63;;;17.50;99.90;;;;;;5030928;28;20225;-52
2022/07/11 00:06:44;;;;;;;1.03;0.60;;;17.40;99.90;;;;;;5030935;28;20202;-53
2022/07/11 00:09:11;;;;;;;0.40;0.40;;;17.30;99.90;;;;;;5031463;28;20202;-52
2022/07/11 00:11:38;;;;;;;1.23;0.60;;;17.20;99.90;;;;;;5030489;28;20210;-52
2022/07/11 00:14:07;;;;;;;0.40;0.40;;;17.10;99.90;;;;;;5028172;28;20219;-52
2022/07/11 00:16:34;;;;;;;0.40;0.40;;;17.00;99.90;;;;;;5026150;28;20198;-53
2022/07/11 00:19:01;;;;;;;0.87;0.33;;;17.00;99.90;;;;;;5030293;28;20202;-52
2022/07/11 00:21:28;;;;;;;0.43;0.43;;;16.90;99.90;;;;;;5029305;28;20221;-52
2022/07/11 00:23:55;;;;;;;1.23;0.60;;;16.80;99.90;;;;;;5029957;28;20284;-52
2022/07/11 00:26:22;;;;;;;1.53;0.70;;;16.90;99.90;;;;;;5031735;28;20256;-53
2022/07/11 00:28:49;;;;;;;1.50;0.60;;;16.90;99.90;;;;;;5030042;28;20637;-52
2022/07/11 00:31:17;;;;;;;3.30;0.40;;;16.90;99.90;;;;;;5030923;28;20202;-52
2022/07/11 00:33:44;;;;;;;0.50;0.50;;;16.90;99.90;;;;;;5028580;28;20238;-53
2022/07/11 00:36:12;;;;;;;0.77;0.50;;;16.90;99.90;;;;;;5031839;28;20260;-52
2022/07/11 00:38:40;;;;;;;0.87;0.40;;;16.90;99.90;;;;;;5030437;28;20198;-52
2022/07/11 00:41:07;;;;;;;0.60;0.60;;;16.90;99.90;;;;;;5029727;28;20198;-53
2022/07/11 00:43:35;;;;;;;0.43;0.40;;;16.90;99.90;;;;;;5031362;28;20287;-52
2022/07/11 00:46:03;;;;;;;1.00;0.50;;;16.90;99.90;;;;;;5029441;28;20603;-52
2022/07/11 00:48:32;;;;;;;0.93;0.53;;;16.80;99.90;;;;;;5028816;28;20256;-52
2022/07/11 00:51:00;;;;;;;0.97;0.50;;;16.80;99.90;;;;;;5028242;28;20218;-52
2022/07/11 00:53:27;;;;;;;1.27;0.40;;;16.80;99.90;;;;;;5024048;28;20226;-53
2022/07/11 00:55:55;;;;;;;0.50;0.50;;;16.80;99.90;;;;;;5028649;28;20261;-52
2022/07/11 00:58:24;;;;;;;0.63;0.53;;;16.70;99.90;;;;;;5029901;28;20210;-53
2022/07/11 01:00:51;;;;;;;0.40;0.40;;;16.70;99.90;;;;;;5028211;28;20207;-52
2022/07/11 01:03:20;;;;;;;1.60;0.70;;;16.60;99.90;;;;;;5023502;28;20222;-53
2022/07/11 01:05:48;;;;;;;0.53;0.40;;;16.60;99.90;;;;;;5030453;28;20724;-51
2022/07/11 01:08:16;;;;;;;0.80;0.53;;;16.70;99.90;;;;;;5022005;28;20607;-52
2022/07/11 01:10:43;;;;;;;1.50;0.57;;;16.70;99.90;;;;;;5026646;28;20198;-53
2022/07/11 01:13:13;;;;;;;1.30;0.40;;;16.80;99.90;;;;;;5023770;28;20242;-52
2022/07/11 01:15:40;;;;;;;2.50;0.70;;;16.80;99.90;;;;;;5025904;28;20657;-53
2022/07/11 01:18:07;;;;;;;0.83;0.60;;;16.70;99.90;;;;;;5030268;28;20199;-52
2022/07/11 01:20:34;;;;;;;2.60;0.80;;;16.70;99.90;;;;;;5031741;28;20211;-53
2022/07/11 01:23:04;;;;;;;1.00;0.43;;;16.70;99.90;;;;;;5032241;28;20585;-52
2022/07/11 01:25:31;;;;;;;0.93;0.50;;;16.70;99.90;;;;;;5025569;28;20219;-52
2022/07/11 01:27:58;;;;;;;1.40;0.53;;;16.80;99.90;;;;;;5032217;28;20203;-52
2022/07/11 01:30:26;;;;;;;0.40;0.30;;;16.80;99.90;;;;;;5031545;28;20677;-52
2022/07/11 01:32:53;;;;;;;0.87;0.50;;;16.80;99.90;;;;;;5032087;28;20322;-53
2022/07/11 01:35:20;;;;;;;0.90;0.50;;;16.80;99.90;;;;;;5034316;28;20244;-52
2022/07/11 01:37:48;;;;;;;0.40;0.40;;;16.80;99.90;;;;;;5031471;28;20260;-52
2022/07/11 01:40:17;;;;;;;0.50;0.33;;;16.80;99.90;;;;;;5033599;28;20251;-52
2022/07/11 01:42:44;;;;;;;1.80;0.67;;;16.80;99.90;;;;;;5031800;28;20222;-52
2022/07/11 01:45:12;;;;;;;1.33;0.70;;;16.70;99.90;;;;;;5029938;28;20265;-51
2022/07/11 01:47:40;;;;;;;0.50;0.40;;;16.70;99.90;;;;;;5029831;28;20554;-52
2022/07/11 01:50:08;;;;;;;0.77;0.50;;;16.70;99.90;;;;;;5024753;28;20743;-52
2022/07/11 01:52:35;;;;;;;1.33;0.57;;;16.60;99.90;;;;;;5026722;28;20421;-52
2022/07/11 01:55:02;;;;;;;0.47;0.47;;;16.60;99.90;;;;;;5030586;28;20206;-52
2022/07/11 01:57:30;;;;;;;0.50;0.50;;;16.70;99.90;;;;;;5033158;28;20209;-52
2022/07/11 01:59:57;;;;;;;0.50;0.50;;;16.60;99.90;;;;;;5029953;28;20198;-52
2022/07/11 02:02:24;;;;;;;0.80;0.80;;;16.60;99.90;;;;;;5032515;28;20292;-52
2022/07/11 02:04:51;;;;;;;1.80;1.07;;;16.60;99.90;;;;;;5033282;28;20273;-52
2022/07/11 02:08:11;;;;;;;0.70;0.70;;;16.60;99.90;;;;;;5032494;28;20209;-51
2022/07/11 02:10:06;;;;;;;0.60;0.60;;;16.60;99.90;;;;;;5030504;28;20271;-52
2022/07/11 02:12:34;;;;;;;1.83;0.80;;;16.60;99.90;;;;;;5032723;28;20276;-52
2022/07/11 02:15:01;;;;;;;0.57;0.50;;;16.50;99.90;;;;;;5033962;28;20207;-53
2022/07/11 02:17:28;;;;;;;0.70;0.67;;;16.50;99.90;;;;;;5027246;28;20210;-52
2022/07/11 02:19:55;;;;;;;0.90;0.50;;;16.50;99.90;;;;;;5023483;28;20727;-52
2022/07/11 02:22:22;;;;;;;0.60;0.60;;;16.40;99.90;;;;;;5032377;28;20245;-52
2022/07/11 02:24:49;;;;;;;0.93;0.63;;;16.40;99.90;;;;;;5031041;28;20628;-52
2022/07/11 02:27:16;;;;;;;0.97;0.70;;;16.30;99.90;;;;;;5032974;28;20728;-52
2022/07/11 02:29:44;;;;;;;0.63;0.63;;;16.20;99.90;;;;;;5031649;28;20257;-53
2022/07/11 02:32:12;;;;;;;1.07;0.67;;;16.10;99.90;;;;;;5023915;28;20195;-52
2022/07/11 02:34:39;;;;;;;5.00;0.80;;;15.90;99.90;;;;;;5055966;22;20865;-52
2022/07/11 02:37:06;;;;;;;0.50;0.50;;;15.80;99.90;;;;;;5031231;28;20198;-54
2022/07/11 02:39:33;;;;;;;0.70;0.70;;;15.80;99.90;;;;;;5032542;28;20294;-54
2022/07/11 02:42:00;;;;;;;1.30;0.50;;;15.70;99.90;;;;;;5029560;28;20234;-54
2022/07/11 02:44:27;;;;;;;0.53;0.53;;;15.70;99.90;;;;;;5032739;28;20249;-52
2022/07/11 02:46:55;;;;;;;0.63;0.63;;;15.60;99.90;;;;;;5032991;28;20209;-52
2022/07/11 02:49:23;;;;;;;0.70;0.70;;;15.60;99.90;;;;;;5014878;28;20203;-52
2022/07/11 02:51:50;;;;;;;1.20;0.80;;;15.60;99.90;;;;;;5011551;28;20693;-54
2022/07/11 02:54:17;;;;;;;1.30;0.80;;;15.50;99.90;;;;;;5012162;28;20723;-54
2022/07/11 02:56:45;;;;;;;2.03;1.23;;;15.40;99.90;;;;;;5009024;28;20230;-51
2022/07/11 02:59:12;;;;;;;1.73;1.20;;;15.50;99.90;;;;;;5004381;28;20290;-51
2022/07/11 03:01:41;;;;;;;1.00;1.00;;;15.40;99.90;;;;;;5004919;28;20261;-51
2022/07/11 03:04:09;;;;;;;2.67;0.60;;;15.40;99.90;;;;;;5020423;28;20756;-51
2022/07/11 03:06:38;;;;;;;1.00;0.70;;;15.40;99.90;;;;;;5013122;28;20215;-52
2022/07/11 03:09:05;;;;;;;1.17;1.17;;;15.40;99.90;;;;;;5012929;28;20203;-52
2022/07/11 03:11:32;;;;;;;1.80;0.70;;;15.30;99.90;;;;;;5019499;28;20210;-51
2022/07/11 03:14:00;;;;;;;2.40;1.13;;;15.30;99.90;;;;;;5016371;28;20306;-51
2022/07/11 03:16:27;;;;;;;0.80;0.80;;;15.20;99.90;;;;;;5014595;28;20202;-51
2022/07/11 03:18:55;;;;;;;0.70;0.70;;;15.10;99.90;;;;;;5015245;28;20207;-51
2022/07/11 03:21:23;;;;;;;1.43;1.23;;;15.10;99.90;;;;;;5015454;28;20680;-52
2022/07/11 03:23:51;;;;;;;0.63;0.63;;;15.10;99.90;;;;;;5029467;28;20712;-51
2022/07/11 03:26:18;;;;;;;1.53;1.17;;;15.00;99.90;;;;;;5032096;28;20661;-51
2022/07/11 03:28:45;;;;;;;0.70;0.70;;;15.00;99.90;;;;;;5026975;28;20206;-51
2022/07/11 03:31:12;;;;;;;0.83;0.83;;;15.00;99.90;;;;;;5008659;28;20223;-51
2022/07/11 03:33:39;;;;;;;2.10;0.80;;;15.00;99.90;;;;;;5019403;28;20669;-50
2022/07/11 03:36:06;;;;;;;1.80;1.10;;;15.10;99.90;;;;;;5032282;28;20198;-52
2022/07/11 03:38:35;;;;;;;1.13;0.83;;;15.00;99.90;;;;;;5031935;28;20202;-51
2022/07/11 03:41:02;;;;;;;0.77;0.77;;;15.00;99.90;;;;;;5015044;28;20203;-51
2022/07/11 03:43:29;;;;;;;1.60;0.80;;;15.00;99.90;;;;;;5018450;28;20227;-51
2022/07/11 03:45:56;;;;;;;1.90;1.30;;;15.00;99.90;;;;;;5023719;28;20653;-51
2022/07/11 03:48:23;;;;;;;1.90;1.00;;;15.00;99.90;;;;;;5007166;28;20213;-51
2022/07/11 03:50:50;;;;;;;2.10;1.00;;;14.90;99.90;;;;;;5014889;28;20242;-51
2022/07/11 03:53:17;;;;;;;1.57;1.13;;;15.00;99.90;;;;;;5023055;28;20276;-51
2022/07/11 03:55:46;;;;;;;3.27;1.20;;;14.90;99.90;;;;;;5009450;28;20200;-51
2022/07/11 03:58:13;;;;;;;1.50;1.40;;;15.00;99.90;;;;;;5011636;28;20231;-51
2022/07/11 04:00:40;;;;;;;1.00;1.00;;;15.00;99.90;;;;;;5004122;28;20215;-51
2022/07/11 04:03:07;;;;;;;1.10;1.10;;;15.10;99.90;;;;;;5009883;28;20203;-51
2022/07/11 04:05:34;;;;;;;1.20;1.20;;;15.20;99.90;;;;;;5019716;28;20779;-51
2022/07/11 04:08:01;;;;;;;1.43;1.33;;;15.30;99.90;;;;;;5006970;28;20796;-51
2022/07/11 04:10:28;;;;;;;1.70;1.60;;;15.30;99.90;;;;;;5007854;28;20204;-52
2022/07/11 04:12:56;;;;;;;1.20;1.20;;;15.30;99.90;;;;;;5025005;28;20194;-52
2022/07/11 04:15:23;;;;;;;1.10;1.10;;;15.20;99.90;;;;;;5011981;28;20363;-51
2022/07/11 04:17:50;;;;;;;1.47;1.47;;;15.20;99.90;;;;;;5011591;28;20207;-52
2022/07/11 04:20:17;;;;;;;1.30;1.30;;;15.20;99.90;;;;;;5009775;28;20261;-52
2022/07/11 04:22:44;;;;;;;1.30;1.13;;;15.20;99.90;;;;;;5010620;28;20218;-51
2022/07/11 04:25:11;;;;;;;1.47;1.23;;;15.20;99.90;;;;;;5031121;28;20264;-51
2022/07/11 04:27:38;;;;;;;1.60;1.50;;;15.20;99.90;;;;;;5013258;28;20211;-53
2022/07/11 04:30:08;;;;;;;1.20;1.20;;;15.30;99.90;;;;;;4996172;28;20202;-52
2022/07/11 04:32:35;;;;;;;1.53;1.43;;;15.30;99.90;;;;;;4996847;28;20196;-52
2022/07/11 04:35:02;;;;;;;4.03;1.63;;;15.40;99.90;;;;;;4991470;28;20334;-52
2022/07/11 04:37:30;;;;;;;1.57;1.47;;;15.40;99.90;;;;;;4991163;28;20200;-51
2022/07/11 04:39:57;;;;;;;1.70;1.60;;;15.50;99.90;;;;;;5002046;28;20816;-51
2022/07/11 04:42:24;;;;;;;1.20;1.10;;;15.50;99.90;;;;;;4996248;28;20231;-52
2022/07/11 04:44:51;;;;;;;1.07;1.07;;;15.60;99.90;;;;;;4992227;28;20251;-51
2022/07/11 04:47:20;;;;;;;3.27;1.17;;;15.70;99.90;;;;;;4997530;28;20211;-51
2022/07/11 04:49:47;;;;;;;1.33;1.23;;;15.80;99.90;;;;;;4999340;28;20290;-51
2022/07/11 04:52:14;;;;;;;1.13;0.90;;;16.00;99.90;;;;;;5003845;28;20238;-51
2022/07/11 04:54:41;;;;;;;1.50;1.33;;;16.10;99.90;;;;;;4991947;28;20314;-51
2022/07/11 04:57:08;;;;;;;2.07;0.90;;;16.20;99.90;;;;;;5005649;28;20270;-51
2022/07/11 04:59:35;;;;;;;1.30;1.20;;;16.30;99.90;;;;;;4998063;28;20631;-51
2022/07/11 05:02:03;;;;;;;1.23;1.03;;;16.40;99.90;;;;;;4999034;28;20226;-52
2022/07/11 05:04:31;;;;;;;1.60;1.00;;;16.50;99.90;;;;;;5003577;28;20227;-51
2022/07/11 05:06:58;;;;;;;0.60;0.60;;;16.70;99.90;;;;;;5006161;28;20665;-50
2022/07/11 05:09:25;;;;;;;3.07;1.90;;;17.10;99.90;;;;;;4999843;28;20239;-51
2022/07/11 05:11:52;;;;;;;2.40;1.13;;;17.80;99.90;;;;;;5011657;28;20314;-51
2022/07/11 05:14:19;;;;;;;1.23;1.23;;;18.70;99.90;;;;;;5013308;28;20265;-50
2022/07/11 05:16:46;;;;;;;1.33;1.23;;;19.50;99.90;;;;;;4999456;28;20246;-51
2022/07/11 05:19:13;;;;;;;1.47;1.23;;;20.10;99.90;;;;;;5004583;28;20205;-53
2022/07/11 05:21:41;;;;;;;1.90;0.90;;;20.60;99.90;;;;;;5006001;28;20223;-53
2022/07/11 05:24:09;;;;;;;1.23;1.23;;;21.30;99.90;;;;;;5011400;28;20744;-54
2022/07/11 05:26:36;;;;;;;1.83;1.27;;;21.90;99.90;;;;;;5009238;28;20222;-53
2022/07/11 05:29:03;;;;;;;2.83;0.70;;;22.50;99.90;;;;;;5019814;28;20686;-53
2022/07/11 05:31:32;;;;;;;2.40;1.10;;;22.30;99.90;;;;;;5012255;28;20203;-53
2022/07/11 05:33:59;;;;;;;1.00;0.97;;;22.70;99.90;;;;;;5025487;28;20695;-53
2022/07/11 05:36:26;;;;;;;0.83;0.83;;;23.30;99.90;;;;;;5017289;28;20612;-54
2022/07/11 05:38:55;;;;;;;4.63;0.90;;;23.60;99.90;;;;;;5021129;28;20230;-53
2022/07/11 05:41:22;;;;;;;7.33;1.00;;;24.00;99.90;;;;;;5012366;28;20210;-54
2022/07/11 05:43:49;;;;;;;0.83;0.80;;;24.40;99.90;;;;;;5017184;28;20284;-53
2022/07/11 05:46:16;;;;;;;1.13;0.80;;;24.70;99.90;;;;;;5012202;28;20318;-53
2022/07/11 05:48:43;;;;;;;0.70;0.70;;;25.10;99.90;;;;;;5013500;28;20238;-53
2022/07/11 05:51:11;;;;;;;0.93;0.80;;;25.40;99.90;;;;;;5012532;28;20209;-53
2022/07/11 05:53:38;;;;;;;2.43;0.80;;;25.70;99.90;;;;;;5020227;28;20692;-53
2022/07/11 05:56:07;;;;;;;1.97;0.70;;;26.20;99.90;;;;;;5021346;28;20257;-53
2022/07/11 05:58:34;;;;;;;1.60;0.90;;;26.80;99.00;;;;;;5020815;28;20302;-53
2022/07/11 06:01:01;;;;;;;1.30;0.80;;;27.10;98.30;;;;;;5017711;28;20206;-53
2022/07/11 06:03:28;;;;;;;1.37;0.90;;;27.00;98.10;;;;;;5020939;28;20226;-52
2022/07/11 06:05:55;;;;;;;1.63;0.85;;;27.00;97.70;;;;;;5018037;28;20450;-53
2022/07/11 06:11:10;;;;;;;0.50;0.40;;;27.80;96.50;;;;;;5020915;28;20210;-50
2022/07/11 06:13:37;;;;;;;5.38;1.08;;;28.10;95.70;;;;;;5023513;28;20278;-54
2022/07/11 06:16:05;;;;;;;1.08;0.70;;;28.30;95.10;;;;;;5004429;28;20203;-53
2022/07/11 06:18:31;;;;;;;1.83;0.80;;;28.10;96.30;;;;;;5004475;28;20258;-54
2022/07/11 06:20:58;;;;;;;0.80;0.80;;;28.70;95.40;;;;;;5000717;28;20239;-54
2022/07/11 06:23:25;;;;;;;2.50;1.40;;;28.80;93.70;;;;;;5003780;28;20277;-54
2022/07/11 06:25:52;;;;;;;1.55;0.77;;;28.40;94.50;;;;;;5019772;28;20273;-53
2022/07/11 06:28:21;;;;;;;2.97;0.63;;;28.20;94.20;;;;;;5023678;28;20738;-54
2022/07/11 06:30:48;;;;;;;1.10;0.68;;;28.00;94.50;;;;;;5005360;28;20199;-53
2022/07/11 06:33:16;;;;;;;2.42;0.65;;;28.10;94.80;;;;;;5008121;28;20277;-54
2022/07/11 06:35:44;;;;;;;1.15;0.60;;;28.20;95.20;;;;;;5012687;28;20245;-53
2022/07/11 06:38:15;;;;;;;2.60;0.55;;;29.10;95.10;;;;;;5003099;28;20203;-54
2022/07/11 06:40:42;;;;;;;1.13;1.02;;;29.20;94.70;;;;;;5010485;28;20619;-54
2022/07/11 06:43:09;;;;;;;0.75;0.60;;;29.30;93.80;;;;;;4998727;28;20227;-53
2022/07/11 06:45:38;;;;;;;0.95;0.68;;;29.40;94.90;;;;;;5005092;28;20223;-54
2022/07/11 06:48:06;;;;;;;2.78;0.98;;;29.40;94.00;;;;;;4999234;28;20200;-53
2022/07/11 06:50:33;;;;;;;0.60;0.60;;;29.50;93.40;;;;;;4999618;28;20199;-54
2022/07/11 06:53:00;;;;;;;1.65;0.60;;;29.70;94.80;;;;;;5002638;28;20250;-54
2022/07/11 06:55:28;;;;;;;0.47;0.43;;;29.80;94.30;;;;;;4992311;28;20262;-54
2022/07/11 06:57:55;;;;;;;1.15;0.95;;;29.60;92.60;;;;;;5009149;28;20208;-54
2022/07/11 07:00:22;;;;;;;0.95;0.95;;;29.60;93.60;;;;;;5002129;28;20674;-53
2022/07/11 07:02:50;;;;;;;2.28;0.73;;;29.50;95.00;;;;;;4991897;28;20203;-53
2022/07/11 07:05:18;;;;;;;4.85;0.88;;;29.00;93.80;;;;;;4992241;28;20212;-54
2022/07/11 07:07:45;;;;;;;0.80;0.50;;;29.40;94.40;;;;;;5001305;28;20200;-54
2022/07/11 07:10:12;;;;;;;1.13;0.90;;;29.70;93.60;;;;;;5007799;28;20686;-53
2022/07/11 07:12:40;;;;;;;1.77;0.70;;;30.20;92.50;;;;;;4998775;28;20203;-54
2022/07/11 07:15:09;;;;;;;1.02;0.70;;;30.70;92.00;;;;;;4992067;28;20223;-54
2022/07/11 07:17:36;;;;;;;2.03;0.60;;;29.60;93.30;;;;;;5000279;28;20204;-53
2022/07/11 07:20:08;;;;;;;0.88;0.88;;;27.70;93.50;;;;;;5000328;28;20593;-53
2022/07/11 07:22:35;;;;;;;0.60;0.60;;;26.90;95.40;;;;;;5004500;28;20262;-53
2022/07/11 07:25:03;;;;;;;1.15;0.68;;;26.70;95.60;;;;;;4992135;28;20277;-54
2022/07/11 07:27:30;;;;;;;0.80;0.70;;;27.10;96.30;;;;;;5001003;28;20236;-54
2022/07/11 07:29:57;;;;;;;3.23;1.00;;;26.80;96.70;;;;;;5000037;28;20227;-51
2022/07/11 07:32:24;;;;;;;1.73;0.90;;;26.70;96.30;;;;;;4991096;28;20200;-54
2022/07/11 07:34:51;;;;;;;1.30;0.73;;;26.40;96.60;;;;;;4996214;28;20227;-53
2022/07/11 07:37:19;;;;;;;1.23;0.80;;;26.70;97.70;;;;;;5000832;28;20261;-53
2022/07/11 07:39:47;;;;;;;0.57;0.57;;;26.90;98.20;;;;;;5004561;28;20282;-53
2022/07/11 07:42:14;;;;;;;1.13;1.03;;;26.80;97.90;;;;;;5001217;28;20207;-50
2022/07/11 07:44:41;;;;;;;1.70;0.93;;;27.00;97.60;;;;;;5003619;28;20223;-53
2022/07/11 07:47:08;;;;;;;1.50;0.70;;;26.60;97.70;;;;;;4995871;28;21053;-53
2022/07/11 07:49:35;;;;;;;1.10;0.57;;;26.90;97.50;;;;;;4999433;28;20199;-54
2022/07/11 07:52:02;;;;;;;3.28;1.00;;;27.40;98.30;;;;;;5011293;28;20296;-54
2022/07/11 07:54:31;;;;;;;1.50;0.70;;;28.30;96.90;;;;;;5010706;28;20364;-53
2022/07/11 07:56:58;;;;;;;0.80;0.80;;;28.10;95.60;;;;;;5021551;28;20624;-54
2022/07/11 07:59:25;;;;;;;0.43;0.43;;;27.80;96.60;;;;;;5018877;28;20290;-52
2022/07/11 08:01:51;;;;;;;1.00;1.00;;;27.40;95.90;;;;;;5016888;28;20242;-53
2022/07/11 08:04:18;;;;;;;0.70;0.60;;;27.40;95.60;;;;;;5018376;28;20219;-53
2022/07/11 08:06:45;;;;;;;1.60;1.43;;;27.20;96.00;;;;;;5018933;28;20237;-53
2022/07/11 08:09:12;;;;;;;1.20;0.77;;;27.20;96.10;;;;;;5011335;28;20203;-54
2022/07/11 08:11:40;;;;;;;1.10;0.97;;;27.30;96.20;;;;;;5017313;28;20619;-51
2022/07/11 08:14:08;;;;;;;2.27;0.93;;;26.90;95.90;;;;;;5012436;28;20225;-54
2022/07/11 08:16:35;;;;;;;0.90;0.90;;;27.00;96.40;;;;;;5018310;28;20203;-54
2022/07/11 08:19:05;;;;;;;1.23;0.90;;;27.20;96.50;;;;;;5028368;28;20260;-54
2022/07/11 08:21:34;;;;;;;1.17;0.90;;;27.50;95.60;;;;;;5018256;28;20297;-54
2022/07/11 08:24:02;;;;;;;1.70;0.83;;;26.80;96.10;;;;;;5012290;28;20223;-53
2022/07/11 08:26:29;;;;;;;0.60;0.60;;;27.40;95.40;;;;;;5018140;28;20269;-54
2022/07/11 08:28:57;;;;;;;1.53;0.90;;;27.00;96.30;;;;;;5028902;28;20198;-54
2022/07/11 08:31:25;;;;;;;0.90;0.70;;;27.10;95.10;;;;;;5022309;28;20203;-53
2022/07/11 08:33:53;;;;;;;0.70;0.70;;;27.20;95.10;;;;;;5042806;22;20241;-52
2022/07/11 08:36:20;;;;;;;1.00;0.90;;;27.50;94.60;;;;;;5060643;28;20198;-51
2022/07/11 08:38:47;;;;;;;1.40;0.63;;;27.00;94.10;;;;;;5068263;28;20250;-52
2022/07/11 08:41:16;;;;;;;1.90;0.60;;;27.10;94.30;;;;;;5054715;28;20292;-51
2022/07/11 08:43:44;;;;;;;0.87;0.50;;;27.60;95.10;;;;;;5054081;28;20699;-52
2022/07/11 08:46:14;;;;;;;1.87;0.83;;;27.60;93.90;;;;;;5028429;28;20226;-52
2022/07/11 08:48:43;;;;;;;0.57;0.50;;;28.10;95.30;;;;;;5030892;28;20194;-51
2022/07/11 08:51:10;;;;;;;1.90;0.70;;;28.00;95.10;;;;;;5032326;28;20225;-51
2022/07/11 08:53:41;;;;;;;0.50;0.50;;;28.40;94.50;;;;;;5035390;28;20222;-51
2022/07/11 08:56:17;;;;;;;2.33;0.50;;;28.70;92.00;;;;;;5027596;28;20297;-52
2022/07/11 08:58:46;;;;;;;2.63;0.77;;;28.50;93.20;;;;;;5027808;28;20216;-52
2022/07/11 09:01:17;;;;;;;1.90;0.87;;;28.40;91.60;;;;;;5022841;28;20748;-51
2022/07/11 09:03:44;;;;;;;0.52;0.52;;;28.90;91.40;;;;;;5029948;28;20693;-52
2022/07/11 09:06:12;;;;;;;1.60;0.40;;;28.60;92.70;;;;;;5022768;28;20282;-51
2022/07/11 09:08:39;;;;;;;0.60;0.43;;;28.50;91.70;;;;;;5030229;28;20202;-51
2022/07/11 09:11:06;;;;;;;0.50;0.50;;;28.50;91.80;;;;;;5025941;28;20203;-51
2022/07/11 09:13:34;;;;;;;0.80;0.60;;;28.90;92.30;;;;;;5033262;28;20233;-51
2022/07/11 09:16:05;;;;;;;1.43;0.90;;;28.20;92.20;;;;;;5036395;28;20623;-52
2022/07/11 09:18:38;;;;;;;3.10;0.50;;;28.30;91.80;;;;;;5038447;28;20206;-51
2022/07/11 09:26:40;;;;;;;1.33;0.50;;;28.30;92.20;;;;;;5027354;28;20269;-51
2022/07/11 09:29:09;;;;;;;1.30;0.50;;;28.60;92.90;;;;;;5031975;28;20202;-51
2022/07/11 09:31:38;;;;;;;1.00;0.83;;;28.40;92.40;;;;;;5041882;28;20665;-52
2022/07/11 09:34:09;;;;;;;0.50;0.50;;;28.70;91.50;;;;;;5039624;28;20240;-52
2022/07/11 09:36:41;;;;;;;9.82;0.60;;;29.00;91.40;;;;;;5042746;28;20194;-52
2022/07/11 09:39:11;;;;;;;2.75;0.57;;;29.30;90.30;;;;;;5043544;28;20207;-52
2022/07/11 09:41:39;;;;;;;1.65;0.47;;;28.60;90.50;;;;;;5031341;28;20664;-52
2022/07/11 09:44:14;;;;;;;2.37;0.50;;;28.80;92.10;;;;;;5046078;28;20308;-52
2022/07/11 09:46:41;;;;;;;1.55;0.65;;;28.50;91.60;;;;;;5034129;28;20214;-51
2022/07/11 09:49:10;;;;;;;1.45;0.52;;;28.40;91.40;;;;;;5033206;28;20206;-52
2022/07/11 09:51:39;;;;;;;1.05;0.32;;;29.00;89.60;;;;;;5034352;28;20226;-52
2022/07/11 09:54:07;;;;;;;1.45;0.50;;;29.60;90.00;;;;;;5032483;28;20589;-52
2022/07/11 09:56:37;;;;;;;1.95;0.50;;;28.80;90.90;;;;;;5032704;28;20198;-52
2022/07/11 09:59:06;;;;;;;1.17;0.30;;;28.90;90.40;;;;;;5035235;28;20839;-52
2022/07/11 10:01:33;;;;;;;1.55;0.60;;;28.30;91.40;;;;;;5032793;28;20225;-53
2022/07/11 10:04:00;;;;;;;1.05;0.50;;;28.70;91.90;;;;;;5033369;28;20659;-53
2022/07/11 10:06:29;;;;;;;0.75;0.63;;;28.40;89.10;;;;;;5034329;28;20226;-52
2022/07/11 10:08:57;;;;;;;1.00;0.53;;;28.40;92.10;;;;;;5052129;28;20259;-52
2022/07/11 10:11:24;;;;;;;2.07;0.40;;;27.80;92.20;;;;;;5051269;28;20259;-53
2022/07/11 10:13:52;;;;;;;1.13;0.47;;;27.50;92.20;;;;;;5028440;28;20700;-52
2022/07/11 10:16:25;;;;;;;0.80;0.73;;;27.60;92.30;;;;;;5033322;28;20199;-51
2022/07/11 10:19:03;;;;;;;1.50;0.77;;;27.40;93.10;;;;;;5033140;28;20190;-51
2022/07/11 10:21:40;;;;;;;0.63;0.50;;;27.50;92.50;;;;;;5032445;28;20203;-51
2022/07/11 10:24:20;;;;;;;1.17;0.67;;;27.90;91.60;;;;;;5025732;28;20254;-52
2022/07/11 10:26:55;;;;;;;0.97;0.50;;;27.80;93.10;;;;;;5026894;28;20272;-51
2022/07/11 10:29:29;;;;;;;1.27;0.87;;;28.00;92.80;;;;;;5032212;28;20197;-51
2022/07/11 10:32:07;;;;;;;0.60;0.50;;;27.80;92.80;;;;;;5037415;28;20252;-51
2022/07/11 10:34:34;;;;;;;0.50;0.50;;;27.80;92.60;;;;;;5032605;28;20230;-51
2022/07/11 10:37:04;;;;;;;2.63;0.60;;;28.10;92.70;;;;;;5032181;28;20288;-52
2022/07/11 10:39:32;;;;;;;1.53;0.30;;;27.60;93.10;;;;;;5041165;28;20661;-51
2022/07/11 10:42:00;;;;;;;0.73;0.50;;;27.60;92.40;;;;;;5051164;28;20204;-51
2022/07/11 10:44:29;;;;;;;2.13;0.70;;;27.50;93.40;;;;;;5031908;28;20226;-51
2022/07/11 10:46:56;;;;;;;0.83;0.70;;;27.50;91.60;;;;;;5030320;28;20280;-51
2022/07/11 10:49:37;;;;;;;0.40;0.40;;;27.70;93.40;;;;;;5025418;28;20230;-52
2022/07/11 10:52:08;;;;;;;1.33;0.77;;;27.20;94.20;;;;;;5036697;28;20218;-51
2022/07/11 10:54:52;;;;;;;0.77;0.50;;;27.20;93.10;;;;;;5036394;28;20233;-51
2022/07/11 10:57:24;;;;;;;2.08;0.40;;;27.40;93.20;;;;;;5040025;28;20197;-52
2022/07/11 11:00:02;;;;;;;1.80;0.80;;;27.60;94.30;;;;;;5051234;28;20280;-51
2022/07/11 11:02:29;;;;;;;1.73;0.60;;;27.40;94.10;;;;;;5050448;28;20189;-51
2022/07/11 11:05:00;;;;;;;1.50;0.60;;;26.70;94.00;;;;;;5036747;28;20253;-51
2022/07/11 11:07:42;;;;;;;2.00;0.90;;;26.50;95.20;;;;;;5032218;28;20758;-51
2022/07/11 11:10:48;;;;;;;0.67;0.50;;;26.10;94.40;;;;;;5038896;28;20190;-51
2022/07/11 11:13:15;;;;;;;1.03;0.67;;;25.80;95.90;;;;;;5026535;28;20995;-51
2022/07/11 11:15:44;;;;;;;0.70;0.70;;;25.30;95.70;;;;;;5029790;28;20198;-51
2022/07/11 11:18:36;;;;;;;2.10;0.63;;;25.10;95.40;;;;;;5035648;28;20201;-51
2022/07/11 11:21:17;;;;;;;1.90;0.70;;;25.30;96.70;;;;;;5034004;28;20577;-51
2022/07/11 11:24:02;;;;;;;1.77;0.77;;;25.20;95.80;;;;;;5029388;28;20220;-51
2022/07/11 11:26:51;;;;;;;1.17;0.80;;;25.20;96.40;;;;;;5030804;28;20233;-51
2022/07/11 11:29:27;;;;;;;0.80;0.80;;;25.20;97.90;;;;;;5027954;28;20201;-51
2022/07/11 11:31:57;;;;;;;0.70;0.70;;;24.90;96.90;;;;;;5027540;28;20210;-51
2022/07/11 11:34:24;;;;;;;1.40;0.53;;;24.60;96.50;;;;;;5029627;28;20230;-51
2022/07/11 11:37:01;;;;;;;1.70;0.70;;;24.50;98.10;;;;;;5047883;28;20198;-51
2022/07/11 11:39:34;;;;;;;1.00;0.80;;;24.50;99.60;;;;;;5031878;28;20198;-51
2022/07/11 11:42:10;;;;;;;1.20;0.77;;;24.80;99.50;;;;;;5029796;28;20203;-51
2022/07/11 11:44:52;;;;;;;2.50;0.70;;;25.10;98.60;;;;;;5030941;28;20214;-51
2022/07/11 11:47:19;;;;;;;1.33;0.73;;;25.20;98.40;;;;;;5032701;28;20215;-51
2022/07/11 11:49:48;;;;;;;0.50;0.50;;;25.30;97.80;;;;;;5030867;28;20226;-51
2022/07/11 11:52:17;;;;;;;1.67;1.03;;;25.30;97.20;;;;;;5030807;28;20617;-51
2022/07/11 11:54:51;;;;;;;1.20;0.97;;;25.10;97.30;;;;;;5030754;28;20224;-51
2022/07/11 11:57:21;;;;;;;2.43;0.80;;;24.90;98.60;;;;;;5043915;28;20223;-51
2022/07/11 11:59:49;;;;;;;1.27;0.70;;;24.80;97.70;;;;;;5050114;28;20664;-51
2022/07/11 12:02:22;;;;;;;0.60;0.60;;;24.90;97.00;;;;;;5034669;28;20198;-53
2022/07/11 12:04:49;;;;;;;0.57;0.47;;;25.10;98.30;;;;;;5032157;28;20226;-52
2022/07/11 12:07:24;;;;;;;1.13;1.07;;;24.80;97.60;;;;;;5032982;28;21005;-53
2022/07/11 12:09:55;;;;;;;1.20;0.70;;;24.70;97.90;;;;;;5031407;28;20225;-52
2022/07/11 12:15:25;;;;;;;0.87;0.77;;;24.90;99.90;;;;;;5034063;28;20698;-52
2022/07/11 12:17:53;;;;;;;1.13;0.87;;;25.10;98.80;;;;;;5027287;28;20194;-53
2022/07/11 12:20:38;;;;;;;0.70;0.70;;;25.00;99.90;;;;;;5031202;28;20209;-51
2022/07/11 12:23:06;;;;;;;2.97;0.83;;;24.90;99.50;;;;;;5027810;28;20217;-53
2022/07/11 12:25:35;;;;;;;0.60;0.60;;;24.80;99.10;;;;;;5030796;28;20620;-52
2022/07/11 12:28:03;;;;;;;0.90;0.90;;;24.80;98.20;;;;;;5035627;28;20222;-52
2022/07/11 12:30:30;;;;;;;1.17;0.60;;;24.50;99.20;;;;;;5032569;28;20246;-53
2022/07/11 12:33:08;;;;;;;1.13;0.57;;;24.40;98.20;;;;;;5038034;28;20725;-52
2022/07/11 12:35:36;;;;;;;0.77;0.60;;;24.30;98.80;;;;;;5033150;28;20234;-51
2022/07/11 12:38:03;;;;;;;1.13;0.90;;;24.50;99.30;;;;;;5029477;28;20257;-53
2022/07/11 12:40:30;;;;;;;1.47;0.80;;;24.50;99.90;;;;;;5029094;28;20237;-53
2022/07/11 12:42:58;;;;;;;2.00;1.13;;;24.50;98.80;;;;;;5035724;28;20672;-52
2022/07/11 12:45:24;;;;;;;1.43;0.50;;;24.50;99.40;;;;;;5030663;28;20222;-52
2022/07/11 12:47:54;;;;;;;0.60;0.60;;;24.40;98.50;;;;;;5029606;28;20268;-52
2022/07/11 12:50:23;;;;;;;3.37;0.67;;;24.30;99.20;;;;;;5032447;28;20612;-52
2022/07/11 12:52:51;;;;;;;2.50;0.83;;;24.10;99.90;;;;;;5048640;28;20247;-52
2022/07/11 12:55:24;;;;;;;2.83;0.70;;;24.00;99.60;;;;;;5041207;28;20222;-53
2022/07/11 12:58:07;;;;;;;1.17;0.70;;;24.10;99.90;;;;;;5030283;28;20732;-52
2022/07/11 13:00:36;;;;;;;0.50;0.50;;;24.00;98.70;;;;;;5033818;28;20195;-52
2022/07/11 13:03:03;;;;;;;1.17;0.50;;;24.00;99.70;;;;;;5029501;28;20226;-52
2022/07/11 13:05:31;;;;;;;0.87;0.80;;;24.00;99.90;;;;;;5028774;28;20222;-52
2022/07/11 13:10:51;;;;;;;0.87;0.50;;;23.90;98.80;;;;;;5034802;28;20200;-52